sensor_id;sensor_type;location;lat;lon;timestamp;P1;durP1;ratioP1;P2;durP2;ratioP2
75997;SDS011;64685;48.762;44.822;2022-12-13T00:00:37;3.47;;;1.20;;
75997;SDS011;64685;48.762;44.822;2022-12-13T00:03:02;3.20;;;1.02;;
75997;SDS011;64685;48.762;44.822;2022-12-13T00:05:28;2.78;;;1.13;;
75997;SDS011;64685;48.762;44.822;2022-12-13T00:07:54;5.40;;;2.17;;
75997;SDS011;64685;48.762;44.822;2022-12-13T00:10:20;2.45;;;1.23;;
75997;SDS011;64685;48.762;44.822;2022-12-13T00:12:45;9.93;;;1.80;;
75997;SDS011;64685;48.762;44.822;2022-12-13T00:15:11;0.95;;;0.45;;
75997;SDS011;64685;48.762;44.822;2022-12-13T00:17:37;2.90;;;0.95;;
75997;SDS011;64685;48.762;44.822;2022-12-13T00:20:03;7.75;;;2.20;;
75997;SDS011;64685;48.762;44.822;2022-12-13T00:22:29;6.28;;;1.98;;
75997;SDS011;64685;48.762;44.822;2022-12-13T00:24:54;7.28;;;1.80;;
75997;SDS011;64685;48.762;44.822;2022-12-13T00:27:21;4.90;;;1.42;;
75997;SDS011;64685;48.762;44.822;2022-12-13T00:29:47;4.95;;;1.40;;
75997;SDS011;64685;48.762;44.822;2022-12-13T00:32:12;5.88;;;1.67;;
75997;SDS011;64685;48.762;44.822;2022-12-13T00:34:39;3.85;;;1.27;;
75997;SDS011;64685;48.762;44.822;2022-12-13T00:37:04;3.42;;;1.42;;
75997;SDS011;64685;48.762;44.822;2022-12-13T00:39:30;4.45;;;1.85;;
75997;SDS011;64685;48.762;44.822;2022-12-13T00:41:56;4.97;;;1.73;;
75997;SDS011;64685;48.762;44.822;2022-12-13T00:44:22;2.50;;;1.13;;
75997;SDS011;64685;48.762;44.822;2022-12-13T00:46:48;4.43;;;0.70;;
75997;SDS011;64685;48.762;44.822;2022-12-13T00:49:16;3.70;;;1.80;;
75997;SDS011;64685;48.762;44.822;2022-12-13T00:51:42;8.40;;;2.22;;
75997;SDS011;64685;48.762;44.822;2022-12-13T00:54:07;3.47;;;1.15;;
75997;SDS011;64685;48.762;44.822;2022-12-13T00:56:35;3.88;;;1.40;;
75997;SDS011;64685;48.762;44.822;2022-12-13T00:59:01;2.05;;;1.15;;
75997;SDS011;64685;48.762;44.822;2022-12-13T01:01:28;4.32;;;2.13;;
75997;SDS011;64685;48.762;44.822;2022-12-13T01:03:55;6.78;;;2.08;;
75997;SDS011;64685;48.762;44.822;2022-12-13T01:06:31;3.90;;;2.00;;
75997;SDS011;64685;48.762;44.822;2022-12-13T01:08:58;4.70;;;1.70;;
75997;SDS011;64685;48.762;44.822;2022-12-13T01:11:24;5.18;;;1.67;;
75997;SDS011;64685;48.762;44.822;2022-12-13T01:13:50;7.07;;;1.60;;
75997;SDS011;64685;48.762;44.822;2022-12-13T01:16:16;4.75;;;1.90;;
75997;SDS011;64685;48.762;44.822;2022-12-13T01:18:43;5.47;;;1.58;;
75997;SDS011;64685;48.762;44.822;2022-12-13T01:21:10;5.53;;;1.95;;
75997;SDS011;64685;48.762;44.822;2022-12-13T01:23:36;4.32;;;0.95;;
75997;SDS011;64685;48.762;44.822;2022-12-13T01:26:03;3.95;;;1.83;;
75997;SDS011;64685;48.762;44.822;2022-12-13T01:28:29;2.13;;;1.00;;
75997;SDS011;64685;48.762;44.822;2022-12-13T01:30:59;5.40;;;1.77;;
75997;SDS011;64685;48.762;44.822;2022-12-13T01:33:25;5.22;;;1.83;;
75997;SDS011;64685;48.762;44.822;2022-12-13T01:35:51;7.45;;;1.98;;
75997;SDS011;64685;48.762;44.822;2022-12-13T01:38:17;3.15;;;1.17;;
75997;SDS011;64685;48.762;44.822;2022-12-13T01:40:47;5.32;;;2.33;;
75997;SDS011;64685;48.762;44.822;2022-12-13T01:43:14;5.43;;;2.28;;
75997;SDS011;64685;48.762;44.822;2022-12-13T01:45:40;8.82;;;2.63;;
75997;SDS011;64685;48.762;44.822;2022-12-13T01:48:08;4.82;;;1.48;;
75997;SDS011;64685;48.762;44.822;2022-12-13T01:50:36;3.47;;;1.70;;
75997;SDS011;64685;48.762;44.822;2022-12-13T01:53:04;3.58;;;0.88;;
75997;SDS011;64685;48.762;44.822;2022-12-13T01:55:32;2.47;;;0.70;;
75997;SDS011;64685;48.762;44.822;2022-12-13T01:57:59;4.25;;;0.80;;
75997;SDS011;64685;48.762;44.822;2022-12-13T02:00:26;4.78;;;2.10;;
75997;SDS011;64685;48.762;44.822;2022-12-13T02:02:52;2.13;;;1.20;;
75997;SDS011;64685;48.762;44.822;2022-12-13T02:05:32;6.38;;;2.30;;
75997;SDS011;64685;48.762;44.822;2022-12-13T02:10:24;2.08;;;1.08;;
75997;SDS011;64685;48.762;44.822;2022-12-13T02:12:50;3.50;;;1.83;;
75997;SDS011;64685;48.762;44.822;2022-12-13T02:15:17;4.70;;;2.63;;
75997;SDS011;64685;48.762;44.822;2022-12-13T02:17:50;6.13;;;2.97;;
75997;SDS011;64685;48.762;44.822;2022-12-13T02:33:33;17.42;;;2.80;;
75997;SDS011;64685;48.762;44.822;2022-12-13T02:38:43;10.13;;;2.47;;
75997;SDS011;64685;48.762;44.822;2022-12-13T02:41:17;9.68;;;2.75;;
75997;SDS011;64685;48.762;44.822;2022-12-13T02:46:12;5.57;;;3.97;;
75997;SDS011;64685;48.762;44.822;2022-12-13T02:48:39;16.33;;;5.22;;
75997;SDS011;64685;48.762;44.822;2022-12-13T02:53:32;6.15;;;2.92;;
75997;SDS011;64685;48.762;44.822;2022-12-13T02:55:58;16.75;;;5.70;;
75997;SDS011;64685;48.762;44.822;2022-12-13T02:58:26;12.27;;;3.58;;
75997;SDS011;64685;48.762;44.822;2022-12-13T03:11:21;8.90;;;3.08;;
75997;SDS011;64685;48.762;44.822;2022-12-13T03:18:41;17.10;;;5.50;;
75997;SDS011;64685;48.762;44.822;2022-12-13T03:21:08;7.03;;;4.07;;
75997;SDS011;64685;48.762;44.822;2022-12-13T03:23:34;10.25;;;2.40;;
75997;SDS011;64685;48.762;44.822;2022-12-13T03:26:02;9.82;;;2.95;;
75997;SDS011;64685;48.762;44.822;2022-12-13T03:28:29;11.93;;;4.20;;
75997;SDS011;64685;48.762;44.822;2022-12-13T03:30:54;16.88;;;3.78;;
75997;SDS011;64685;48.762;44.822;2022-12-13T03:33:20;8.93;;;2.90;;
75997;SDS011;64685;48.762;44.822;2022-12-13T03:35:47;19.75;;;6.70;;
75997;SDS011;64685;48.762;44.822;2022-12-13T03:38:13;26.73;;;10.90;;
75997;SDS011;64685;48.762;44.822;2022-12-13T03:40:39;30.60;;;11.65;;
75997;SDS011;64685;48.762;44.822;2022-12-13T03:43:05;41.70;;;12.55;;
75997;SDS011;64685;48.762;44.822;2022-12-13T03:45:31;31.42;;;11.43;;
75997;SDS011;64685;48.762;44.822;2022-12-13T03:47:57;40.63;;;13.45;;
75997;SDS011;64685;48.762;44.822;2022-12-13T03:50:23;28.38;;;8.27;;
75997;SDS011;64685;48.762;44.822;2022-12-13T03:52:48;42.17;;;14.05;;
75997;SDS011;64685;48.762;44.822;2022-12-13T03:57:41;35.80;;;13.60;;
75997;SDS011;64685;48.762;44.822;2022-12-13T04:00:07;34.42;;;14.10;;
75997;SDS011;64685;48.762;44.822;2022-12-13T04:02:38;23.33;;;10.02;;
75997;SDS011;64685;48.762;44.822;2022-12-13T04:05:04;28.65;;;8.40;;
75997;SDS011;64685;48.762;44.822;2022-12-13T04:07:30;27.67;;;10.93;;
75997;SDS011;64685;48.762;44.822;2022-12-13T04:09:55;21.90;;;9.32;;
75997;SDS011;64685;48.762;44.822;2022-12-13T04:12:21;22.83;;;10.30;;
75997;SDS011;64685;48.762;44.822;2022-12-13T04:15:06;26.63;;;8.23;;
75997;SDS011;64685;48.762;44.822;2022-12-13T04:17:32;31.83;;;11.43;;
75997;SDS011;64685;48.762;44.822;2022-12-13T04:19:57;22.23;;;8.95;;
75997;SDS011;64685;48.762;44.822;2022-12-13T04:22:23;26.05;;;7.93;;
75997;SDS011;64685;48.762;44.822;2022-12-13T04:24:49;22.33;;;8.70;;
75997;SDS011;64685;48.762;44.822;2022-12-13T04:27:15;15.70;;;7.60;;
75997;SDS011;64685;48.762;44.822;2022-12-13T04:29:40;18.13;;;5.40;;
75997;SDS011;64685;48.762;44.822;2022-12-13T04:32:06;12.30;;;4.80;;
75997;SDS011;64685;48.762;44.822;2022-12-13T04:34:32;16.75;;;5.82;;
75997;SDS011;64685;48.762;44.822;2022-12-13T04:36:58;11.77;;;4.00;;
75997;SDS011;64685;48.762;44.822;2022-12-13T04:39:24;27.33;;;4.72;;
75997;SDS011;64685;48.762;44.822;2022-12-13T04:41:50;17.00;;;4.05;;
75997;SDS011;64685;48.762;44.822;2022-12-13T04:44:16;8.93;;;3.50;;
75997;SDS011;64685;48.762;44.822;2022-12-13T04:46:42;5.30;;;2.65;;
75997;SDS011;64685;48.762;44.822;2022-12-13T04:49:08;15.68;;;5.60;;
75997;SDS011;64685;48.762;44.822;2022-12-13T04:51:34;8.43;;;3.28;;
75997;SDS011;64685;48.762;44.822;2022-12-13T04:53:59;10.45;;;4.28;;
75997;SDS011;64685;48.762;44.822;2022-12-13T04:56:25;11.02;;;4.25;;
75997;SDS011;64685;48.762;44.822;2022-12-13T04:58:51;8.90;;;3.65;;
75997;SDS011;64685;48.762;44.822;2022-12-13T05:01:17;13.88;;;3.28;;
75997;SDS011;64685;48.762;44.822;2022-12-13T05:03:42;13.05;;;4.88;;
75997;SDS011;64685;48.762;44.822;2022-12-13T05:06:09;7.93;;;3.35;;
75997;SDS011;64685;48.762;44.822;2022-12-13T05:08:35;9.90;;;4.30;;
75997;SDS011;64685;48.762;44.822;2022-12-13T05:11:02;7.22;;;2.63;;
75997;SDS011;64685;48.762;44.822;2022-12-13T05:13:28;8.13;;;2.67;;
75997;SDS011;64685;48.762;44.822;2022-12-13T05:15:54;14.60;;;3.67;;
75997;SDS011;64685;48.762;44.822;2022-12-13T05:18:20;10.30;;;3.58;;
75997;SDS011;64685;48.762;44.822;2022-12-13T05:20:46;12.93;;;3.47;;
75997;SDS011;64685;48.762;44.822;2022-12-13T05:23:12;8.77;;;3.65;;
75997;SDS011;64685;48.762;44.822;2022-12-13T05:25:38;12.77;;;4.75;;
75997;SDS011;64685;48.762;44.822;2022-12-13T05:28:04;7.85;;;3.47;;
75997;SDS011;64685;48.762;44.822;2022-12-13T05:30:30;10.70;;;3.15;;
75997;SDS011;64685;48.762;44.822;2022-12-13T05:32:55;12.85;;;3.17;;
75997;SDS011;64685;48.762;44.822;2022-12-13T05:35:21;9.10;;;3.08;;
75997;SDS011;64685;48.762;44.822;2022-12-13T05:37:47;10.32;;;3.35;;
75997;SDS011;64685;48.762;44.822;2022-12-13T05:40:13;7.00;;;2.60;;
75997;SDS011;64685;48.762;44.822;2022-12-13T05:42:38;8.15;;;2.72;;
75997;SDS011;64685;48.762;44.822;2022-12-13T05:45:05;6.97;;;2.72;;
75997;SDS011;64685;48.762;44.822;2022-12-13T05:47:31;10.60;;;3.17;;
75997;SDS011;64685;48.762;44.822;2022-12-13T05:49:57;13.20;;;3.00;;
75997;SDS011;64685;48.762;44.822;2022-12-13T05:52:23;10.38;;;2.65;;
75997;SDS011;64685;48.762;44.822;2022-12-13T05:54:53;12.18;;;4.10;;
75997;SDS011;64685;48.762;44.822;2022-12-13T05:57:19;24.30;;;3.42;;
75997;SDS011;64685;48.762;44.822;2022-12-13T05:59:45;11.27;;;3.47;;
75997;SDS011;64685;48.762;44.822;2022-12-13T06:02:10;4.95;;;1.60;;
75997;SDS011;64685;48.762;44.822;2022-12-13T06:04:36;6.82;;;2.45;;
75997;SDS011;64685;48.762;44.822;2022-12-13T06:07:02;9.88;;;2.75;;
75997;SDS011;64685;48.762;44.822;2022-12-13T06:09:28;6.28;;;1.63;;
75997;SDS011;64685;48.762;44.822;2022-12-13T06:11:53;7.63;;;2.90;;
75997;SDS011;64685;48.762;44.822;2022-12-13T06:14:19;4.97;;;1.70;;
75997;SDS011;64685;48.762;44.822;2022-12-13T06:16:45;8.85;;;2.65;;
75997;SDS011;64685;48.762;44.822;2022-12-13T06:19:11;9.55;;;2.88;;
75997;SDS011;64685;48.762;44.822;2022-12-13T06:21:36;9.50;;;3.13;;
75997;SDS011;64685;48.762;44.822;2022-12-13T06:24:02;4.85;;;2.53;;
75997;SDS011;64685;48.762;44.822;2022-12-13T06:26:30;11.77;;;3.40;;
75997;SDS011;64685;48.762;44.822;2022-12-13T06:28:56;8.18;;;2.22;;
75997;SDS011;64685;48.762;44.822;2022-12-13T06:31:21;8.45;;;1.95;;
75997;SDS011;64685;48.762;44.822;2022-12-13T06:33:47;3.65;;;1.40;;
75997;SDS011;64685;48.762;44.822;2022-12-13T06:36:13;7.40;;;2.95;;
75997;SDS011;64685;48.762;44.822;2022-12-13T06:38:39;4.53;;;1.48;;
75997;SDS011;64685;48.762;44.822;2022-12-13T06:41:14;5.70;;;2.47;;
75997;SDS011;64685;48.762;44.822;2022-12-13T06:43:40;5.95;;;1.83;;
75997;SDS011;64685;48.762;44.822;2022-12-13T06:46:07;7.85;;;2.28;;
75997;SDS011;64685;48.762;44.822;2022-12-13T06:48:32;7.13;;;2.08;;
75997;SDS011;64685;48.762;44.822;2022-12-13T06:51:08;7.47;;;1.88;;
75997;SDS011;64685;48.762;44.822;2022-12-13T06:53:35;6.53;;;2.40;;
75997;SDS011;64685;48.762;44.822;2022-12-13T06:56:02;6.03;;;2.03;;
75997;SDS011;64685;48.762;44.822;2022-12-13T06:58:29;9.43;;;2.80;;
75997;SDS011;64685;48.762;44.822;2022-12-13T07:01:04;6.03;;;2.20;;
75997;SDS011;64685;48.762;44.822;2022-12-13T07:03:31;5.00;;;2.08;;
75997;SDS011;64685;48.762;44.822;2022-12-13T07:05:59;6.40;;;2.67;;
75997;SDS011;64685;48.762;44.822;2022-12-13T07:08:28;5.50;;;1.95;;
75997;SDS011;64685;48.762;44.822;2022-12-13T07:10:55;8.63;;;2.92;;
75997;SDS011;64685;48.762;44.822;2022-12-13T07:13:21;4.57;;;1.95;;
75997;SDS011;64685;48.762;44.822;2022-12-13T07:15:48;4.05;;;2.10;;
75997;SDS011;64685;48.762;44.822;2022-12-13T07:18:16;10.27;;;3.00;;
75997;SDS011;64685;48.762;44.822;2022-12-13T07:20:42;3.70;;;1.70;;
75997;SDS011;64685;48.762;44.822;2022-12-13T07:23:09;4.80;;;2.00;;
75997;SDS011;64685;48.762;44.822;2022-12-13T07:25:35;5.55;;;1.45;;
75997;SDS011;64685;48.762;44.822;2022-12-13T07:28:05;10.55;;;3.38;;
75997;SDS011;64685;48.762;44.822;2022-12-13T07:30:37;9.45;;;2.30;;
75997;SDS011;64685;48.762;44.822;2022-12-13T07:33:03;6.75;;;2.65;;
75997;SDS011;64685;48.762;44.822;2022-12-13T07:35:30;4.97;;;2.05;;
75997;SDS011;64685;48.762;44.822;2022-12-13T07:37:57;10.15;;;1.90;;
75997;SDS011;64685;48.762;44.822;2022-12-13T07:40:23;5.05;;;1.98;;
75997;SDS011;64685;48.762;44.822;2022-12-13T07:42:52;4.72;;;2.03;;
75997;SDS011;64685;48.762;44.822;2022-12-13T07:45:18;4.95;;;2.22;;
75997;SDS011;64685;48.762;44.822;2022-12-13T07:47:44;9.68;;;2.25;;
75997;SDS011;64685;48.762;44.822;2022-12-13T07:50:10;6.57;;;2.42;;
75997;SDS011;64685;48.762;44.822;2022-12-13T07:52:37;5.65;;;1.92;;
75997;SDS011;64685;48.762;44.822;2022-12-13T07:55:03;5.68;;;2.05;;
75997;SDS011;64685;48.762;44.822;2022-12-13T07:57:29;6.13;;;2.33;;
75997;SDS011;64685;48.762;44.822;2022-12-13T07:59:55;7.75;;;1.85;;
75997;SDS011;64685;48.762;44.822;2022-12-13T08:02:21;5.65;;;2.35;;
75997;SDS011;64685;48.762;44.822;2022-12-13T08:04:47;10.05;;;2.70;;
75997;SDS011;64685;48.762;44.822;2022-12-13T08:07:13;7.75;;;2.63;;
75997;SDS011;64685;48.762;44.822;2022-12-13T08:09:39;6.70;;;2.33;;
75997;SDS011;64685;48.762;44.822;2022-12-13T08:12:05;6.15;;;2.42;;
75997;SDS011;64685;48.762;44.822;2022-12-13T08:14:31;6.05;;;2.75;;
75997;SDS011;64685;48.762;44.822;2022-12-13T08:16:57;5.72;;;2.15;;
75997;SDS011;64685;48.762;44.822;2022-12-13T08:19:22;6.50;;;2.60;;
75997;SDS011;64685;48.762;44.822;2022-12-13T08:21:48;3.78;;;1.67;;
75997;SDS011;64685;48.762;44.822;2022-12-13T08:24:17;5.45;;;1.70;;
75997;SDS011;64685;48.762;44.822;2022-12-13T08:26:42;9.07;;;3.30;;
75997;SDS011;64685;48.762;44.822;2022-12-13T08:29:08;6.38;;;2.13;;
75997;SDS011;64685;48.762;44.822;2022-12-13T08:31:34;8.35;;;3.00;;
75997;SDS011;64685;48.762;44.822;2022-12-13T08:34:00;7.82;;;2.53;;
75997;SDS011;64685;48.762;44.822;2022-12-13T08:36:26;5.72;;;2.05;;
75997;SDS011;64685;48.762;44.822;2022-12-13T08:41:18;8.05;;;2.10;;
75997;SDS011;64685;48.762;44.822;2022-12-13T08:46:10;8.60;;;2.50;;
75997;SDS011;64685;48.762;44.822;2022-12-13T08:48:36;7.82;;;2.10;;
75997;SDS011;64685;48.762;44.822;2022-12-13T08:51:08;5.53;;;2.00;;
75997;SDS011;64685;48.762;44.822;2022-12-13T08:53:36;5.07;;;2.55;;
75997;SDS011;64685;48.762;44.822;2022-12-13T08:56:06;7.90;;;2.78;;
75997;SDS011;64685;48.762;44.822;2022-12-13T08:58:32;5.32;;;2.03;;
75997;SDS011;64685;48.762;44.822;2022-12-13T09:00:58;8.38;;;2.50;;
75997;SDS011;64685;48.762;44.822;2022-12-13T09:03:24;7.15;;;2.08;;
75997;SDS011;64685;48.762;44.822;2022-12-13T09:05:49;5.85;;;1.90;;
75997;SDS011;64685;48.762;44.822;2022-12-13T09:08:16;4.90;;;1.83;;
75997;SDS011;64685;48.762;44.822;2022-12-13T09:13:07;7.97;;;2.90;;
75997;SDS011;64685;48.762;44.822;2022-12-13T09:15:33;6.90;;;2.03;;
75997;SDS011;64685;48.762;44.822;2022-12-13T09:17:59;5.47;;;1.45;;
75997;SDS011;64685;48.762;44.822;2022-12-13T09:20:24;7.90;;;2.47;;
75997;SDS011;64685;48.762;44.822;2022-12-13T09:22:50;6.47;;;2.17;;
75997;SDS011;64685;48.762;44.822;2022-12-13T09:25:16;5.97;;;2.47;;
75997;SDS011;64685;48.762;44.822;2022-12-13T09:27:42;6.72;;;2.70;;
75997;SDS011;64685;48.762;44.822;2022-12-13T09:30:08;6.78;;;2.03;;
75997;SDS011;64685;48.762;44.822;2022-12-13T09:32:38;10.45;;;2.53;;
75997;SDS011;64685;48.762;44.822;2022-12-13T09:35:04;7.80;;;2.75;;
75997;SDS011;64685;48.762;44.822;2022-12-13T09:37:30;9.13;;;2.83;;
75997;SDS011;64685;48.762;44.822;2022-12-13T09:39:56;6.32;;;2.45;;
75997;SDS011;64685;48.762;44.822;2022-12-13T09:42:23;7.78;;;2.55;;
75997;SDS011;64685;48.762;44.822;2022-12-13T09:44:51;8.40;;;2.45;;
75997;SDS011;64685;48.762;44.822;2022-12-13T09:47:32;8.30;;;2.85;;
75997;SDS011;64685;48.762;44.822;2022-12-13T09:49:59;4.75;;;1.92;;
75997;SDS011;64685;48.762;44.822;2022-12-13T09:52:29;6.78;;;2.28;;
75997;SDS011;64685;48.762;44.822;2022-12-13T09:54:59;8.35;;;2.67;;
75997;SDS011;64685;48.762;44.822;2022-12-13T09:57:26;7.70;;;2.88;;
75997;SDS011;64685;48.762;44.822;2022-12-13T09:59:52;5.63;;;2.22;;
75997;SDS011;64685;48.762;44.822;2022-12-13T10:02:23;5.85;;;1.75;;
75997;SDS011;64685;48.762;44.822;2022-12-13T10:04:50;8.05;;;2.55;;
75997;SDS011;64685;48.762;44.822;2022-12-13T10:07:20;5.45;;;2.22;;
75997;SDS011;64685;48.762;44.822;2022-12-13T10:09:46;8.25;;;2.90;;
75997;SDS011;64685;48.762;44.822;2022-12-13T10:12:14;6.15;;;2.72;;
75997;SDS011;64685;48.762;44.822;2022-12-13T10:14:45;4.05;;;2.00;;
75997;SDS011;64685;48.762;44.822;2022-12-13T10:17:13;5.65;;;2.42;;
75997;SDS011;64685;48.762;44.822;2022-12-13T10:19:42;6.82;;;2.47;;
75997;SDS011;64685;48.762;44.822;2022-12-13T10:22:10;5.72;;;2.53;;
75997;SDS011;64685;48.762;44.822;2022-12-13T10:27:54;8.40;;;2.85;;
75997;SDS011;64685;48.762;44.822;2022-12-13T10:30:19;9.32;;;3.60;;
75997;SDS011;64685;48.762;44.822;2022-12-13T10:33:00;6.57;;;2.90;;
75997;SDS011;64685;48.762;44.822;2022-12-13T10:35:30;7.05;;;2.58;;
75997;SDS011;64685;48.762;44.822;2022-12-13T10:37:59;10.82;;;3.28;;
75997;SDS011;64685;48.762;44.822;2022-12-13T10:40:33;5.35;;;2.40;;
75997;SDS011;64685;48.762;44.822;2022-12-13T10:45:41;8.85;;;2.75;;
75997;SDS011;64685;48.762;44.822;2022-12-13T10:48:16;6.18;;;2.60;;
75997;SDS011;64685;48.762;44.822;2022-12-13T10:50:43;4.72;;;1.95;;
75997;SDS011;64685;48.762;44.822;2022-12-13T10:53:13;5.13;;;2.22;;
75997;SDS011;64685;48.762;44.822;2022-12-13T10:55:41;7.82;;;3.08;;
75997;SDS011;64685;48.762;44.822;2022-12-13T10:58:10;7.45;;;2.65;;
75997;SDS011;64685;48.762;44.822;2022-12-13T11:00:43;8.27;;;3.17;;
75997;SDS011;64685;48.762;44.822;2022-12-13T11:03:11;4.80;;;2.13;;
75997;SDS011;64685;48.762;44.822;2022-12-13T11:05:37;6.60;;;2.28;;
75997;SDS011;64685;48.762;44.822;2022-12-13T11:11:01;6.78;;;2.90;;
75997;SDS011;64685;48.762;44.822;2022-12-13T11:15:59;8.10;;;2.95;;
75997;SDS011;64685;48.762;44.822;2022-12-13T11:18:26;6.80;;;2.65;;
75997;SDS011;64685;48.762;44.822;2022-12-13T11:20:57;9.70;;;2.88;;
75997;SDS011;64685;48.762;44.822;2022-12-13T11:23:27;7.93;;;2.58;;
75997;SDS011;64685;48.762;44.822;2022-12-13T11:25:55;6.05;;;2.22;;
75997;SDS011;64685;48.762;44.822;2022-12-13T11:31:04;9.38;;;3.08;;
75997;SDS011;64685;48.762;44.822;2022-12-13T11:33:41;5.28;;;1.98;;
75997;SDS011;64685;48.762;44.822;2022-12-13T11:41:08;6.53;;;1.90;;
75997;SDS011;64685;48.762;44.822;2022-12-13T11:46:12;5.53;;;1.40;;
75997;SDS011;64685;48.762;44.822;2022-12-13T11:48:43;7.20;;;2.72;;
75997;SDS011;64685;48.762;44.822;2022-12-13T11:51:12;5.03;;;1.58;;
75997;SDS011;64685;48.762;44.822;2022-12-13T12:01:11;5.28;;;2.05;;
75997;SDS011;64685;48.762;44.822;2022-12-13T12:03:39;10.45;;;2.00;;
75997;SDS011;64685;48.762;44.822;2022-12-13T12:08:46;3.30;;;1.20;;
75997;SDS011;64685;48.762;44.822;2022-12-13T12:13:58;6.55;;;2.22;;
75997;SDS011;64685;48.762;44.822;2022-12-13T12:16:37;6.22;;;2.17;;
75997;SDS011;64685;48.762;44.822;2022-12-13T12:19:08;4.30;;;1.55;;
75997;SDS011;64685;48.762;44.822;2022-12-13T12:21:37;6.25;;;2.47;;
75997;SDS011;64685;48.762;44.822;2022-12-13T12:34:14;6.40;;;2.15;;
75997;SDS011;64685;48.762;44.822;2022-12-13T13:00:19;3.20;;;1.30;;
75997;SDS011;64685;48.762;44.822;2022-12-13T13:10:56;5.13;;;2.03;;
75997;SDS011;64685;48.762;44.822;2022-12-13T13:15:58;4.80;;;1.20;;
75997;SDS011;64685;48.762;44.822;2022-12-13T13:18:46;8.52;;;2.15;;
75997;SDS011;64685;48.762;44.822;2022-12-13T13:24:33;7.95;;;2.70;;
75997;SDS011;64685;48.762;44.822;2022-12-13T13:26:38;8.43;;;2.40;;
75997;SDS011;64685;48.762;44.822;2022-12-13T13:34:40;8.10;;;2.25;;
75997;SDS011;64685;48.762;44.822;2022-12-13T13:42:26;5.75;;;2.13;;
75997;SDS011;64685;48.762;44.822;2022-12-13T13:44:54;5.35;;;1.88;;
75997;SDS011;64685;48.762;44.822;2022-12-13T13:52:24;3.88;;;1.80;;
75997;SDS011;64685;48.762;44.822;2022-12-13T13:54:56;6.57;;;2.72;;
75997;SDS011;64685;48.762;44.822;2022-12-13T14:02:49;4.88;;;2.33;;
75997;SDS011;64685;48.762;44.822;2022-12-13T14:31:16;3.80;;;1.35;;
75997;SDS011;64685;48.762;44.822;2022-12-13T14:33:43;2.92;;;1.15;;
75997;SDS011;64685;48.762;44.822;2022-12-13T14:36:17;10.73;;;1.95;;
75997;SDS011;64685;48.762;44.822;2022-12-13T14:38:43;4.22;;;1.20;;
75997;SDS011;64685;48.762;44.822;2022-12-13T14:41:16;5.57;;;2.05;;
75997;SDS011;64685;48.762;44.822;2022-12-13T14:43:43;4.30;;;1.83;;
75997;SDS011;64685;48.762;44.822;2022-12-13T14:46:10;9.52;;;3.20;;
75997;SDS011;64685;48.762;44.822;2022-12-13T14:48:44;10.95;;;3.42;;
75997;SDS011;64685;48.762;44.822;2022-12-13T14:51:30;11.88;;;3.25;;
75997;SDS011;64685;48.762;44.822;2022-12-13T14:53:57;9.43;;;3.33;;
75997;SDS011;64685;48.762;44.822;2022-12-13T14:56:23;11.95;;;3.38;;
75997;SDS011;64685;48.762;44.822;2022-12-13T14:58:52;3.75;;;1.45;;
75997;SDS011;64685;48.762;44.822;2022-12-13T15:03:49;3.85;;;1.52;;
75997;SDS011;64685;48.762;44.822;2022-12-13T15:06:16;6.40;;;1.92;;
75997;SDS011;64685;48.762;44.822;2022-12-13T15:08:43;6.68;;;2.58;;
75997;SDS011;64685;48.762;44.822;2022-12-13T15:11:09;5.85;;;1.90;;
75997;SDS011;64685;48.762;44.822;2022-12-13T15:16:08;7.35;;;2.42;;
75997;SDS011;64685;48.762;44.822;2022-12-13T15:18:37;4.20;;;1.30;;
75997;SDS011;64685;48.762;44.822;2022-12-13T15:21:22;2.78;;;1.33;;
75997;SDS011;64685;48.762;44.822;2022-12-13T15:23:58;8.90;;;1.83;;
75997;SDS011;64685;48.762;44.822;2022-12-13T15:26:27;5.03;;;1.63;;
75997;SDS011;64685;48.762;44.822;2022-12-13T15:28:54;7.45;;;1.80;;
75997;SDS011;64685;48.762;44.822;2022-12-13T15:31:20;4.30;;;1.30;;
75997;SDS011;64685;48.762;44.822;2022-12-13T15:33:47;7.85;;;1.85;;
75997;SDS011;64685;48.762;44.822;2022-12-13T15:36:17;6.28;;;1.08;;
75997;SDS011;64685;48.762;44.822;2022-12-13T15:38:47;2.67;;;0.88;;
75997;SDS011;64685;48.762;44.822;2022-12-13T15:41:15;6.55;;;1.67;;
75997;SDS011;64685;48.762;44.822;2022-12-13T15:43:42;2.15;;;0.98;;
75997;SDS011;64685;48.762;44.822;2022-12-13T15:46:09;2.95;;;0.90;;
75997;SDS011;64685;48.762;44.822;2022-12-13T15:48:36;3.90;;;1.33;;
75997;SDS011;64685;48.762;44.822;2022-12-13T15:51:14;4.07;;;1.75;;
75997;SDS011;64685;48.762;44.822;2022-12-13T15:53:58;5.35;;;1.27;;
75997;SDS011;64685;48.762;44.822;2022-12-13T15:56:32;5.90;;;1.52;;
75997;SDS011;64685;48.762;44.822;2022-12-13T15:58:58;5.35;;;1.40;;
75997;SDS011;64685;48.762;44.822;2022-12-13T16:01:28;5.88;;;1.55;;
75997;SDS011;64685;48.762;44.822;2022-12-13T16:03:55;5.65;;;1.90;;
75997;SDS011;64685;48.762;44.822;2022-12-13T16:06:21;5.10;;;1.20;;
75997;SDS011;64685;48.762;44.822;2022-12-13T16:08:51;2.67;;;1.17;;
75997;SDS011;64685;48.762;44.822;2022-12-13T16:11:31;4.03;;;1.52;;
75997;SDS011;64685;48.762;44.822;2022-12-13T16:16:42;6.72;;;1.98;;
75997;SDS011;64685;48.762;44.822;2022-12-13T16:19:11;3.10;;;1.50;;
75997;SDS011;64685;48.762;44.822;2022-12-13T16:21:38;4.22;;;1.10;;
75997;SDS011;64685;48.762;44.822;2022-12-13T16:24:04;3.47;;;1.00;;
75997;SDS011;64685;48.762;44.822;2022-12-13T16:26:30;3.85;;;1.88;;
75997;SDS011;64685;48.762;44.822;2022-12-13T16:28:58;4.47;;;1.75;;
75997;SDS011;64685;48.762;44.822;2022-12-13T16:31:25;2.55;;;1.10;;
75997;SDS011;64685;48.762;44.822;2022-12-13T16:33:52;2.38;;;1.17;;
75997;SDS011;64685;48.762;44.822;2022-12-13T16:36:18;1.50;;;0.85;;
75997;SDS011;64685;48.762;44.822;2022-12-13T16:38:44;3.03;;;1.27;;
75997;SDS011;64685;48.762;44.822;2022-12-13T16:41:10;2.63;;;0.90;;
75997;SDS011;64685;48.762;44.822;2022-12-13T16:43:46;3.17;;;0.80;;
75997;SDS011;64685;48.762;44.822;2022-12-13T16:46:15;7.97;;;1.77;;
75997;SDS011;64685;48.762;44.822;2022-12-13T16:48:41;5.38;;;1.77;;
75997;SDS011;64685;48.762;44.822;2022-12-13T16:51:07;5.90;;;1.95;;
75997;SDS011;64685;48.762;44.822;2022-12-13T16:53:33;3.10;;;0.70;;
75997;SDS011;64685;48.762;44.822;2022-12-13T16:55:59;4.82;;;1.83;;
75997;SDS011;64685;48.762;44.822;2022-12-13T16:58:24;1.90;;;0.80;;
75997;SDS011;64685;48.762;44.822;2022-12-13T17:00:50;5.38;;;1.52;;
75997;SDS011;64685;48.762;44.822;2022-12-13T17:03:16;3.47;;;1.75;;
75997;SDS011;64685;48.762;44.822;2022-12-13T17:05:42;3.15;;;1.50;;
75997;SDS011;64685;48.762;44.822;2022-12-13T17:08:12;5.03;;;1.58;;
75997;SDS011;64685;48.762;44.822;2022-12-13T17:10:39;7.57;;;1.55;;
75997;SDS011;64685;48.762;44.822;2022-12-13T17:15:31;5.32;;;1.30;;
75997;SDS011;64685;48.762;44.822;2022-12-13T17:17:57;2.15;;;0.88;;
75997;SDS011;64685;48.762;44.822;2022-12-13T17:20:23;5.65;;;1.35;;
75997;SDS011;64685;48.762;44.822;2022-12-13T17:22:49;5.30;;;1.77;;
75997;SDS011;64685;48.762;44.822;2022-12-13T17:25:15;4.85;;;2.97;;
75997;SDS011;64685;48.762;44.822;2022-12-13T17:27:41;2.25;;;0.98;;
75997;SDS011;64685;48.762;44.822;2022-12-13T17:30:08;1.65;;;0.90;;
75997;SDS011;64685;48.762;44.822;2022-12-13T17:32:34;3.13;;;0.98;;
75997;SDS011;64685;48.762;44.822;2022-12-13T17:35:01;6.10;;;2.08;;
75997;SDS011;64685;48.762;44.822;2022-12-13T17:37:29;4.47;;;1.35;;
75997;SDS011;64685;48.762;44.822;2022-12-13T17:39:55;3.90;;;1.65;;